Time;durP1;ratioP1;P1;durP2;ratioP2;P2;SDS_P1;SDS_P2;PMS_P1;PMS_P2;Temp;Humidity;BMP_temperature;BMP_pressure;BME280_temperature;BME280_humidity;BME280_pressure;Samples;Min_cycle;Max_cycle;Signal;HPM_P1;HPM_P2
2020/12/17 00:01:27;;;;;;;3.88;1.40;;;19.80;19.40;;;;;;5068699;28;20074;-64
2020/12/17 00:03:57;;;;;;;3.38;1.23;;;19.70;19.50;;;;;;5066087;28;20080;-64
2020/12/17 00:06:23;;;;;;;5.78;1.75;;;19.60;19.50;;;;;;5039685;28;20076;-65
2020/12/17 00:08:49;;;;;;;;;;;19.50;20.30;;;;;;5055128;28;20167;-65
2020/12/17 00:11:18;;;;;;;4.75;1.20;;;19.50;20.30;;;;;;5067265;28;20019;-65
2020/12/17 00:13:44;;;;;;;3.42;1.67;;;19.30;20.80;;;;;;5059615;28;20461;-65
2020/12/17 00:16:11;;;;;;;5.03;1.35;;;19.20;20.20;;;;;;5036340;28;20073;-66
2020/12/17 00:18:37;;;;;;;6.97;1.20;;;19.10;20.40;;;;;;5060701;28;20715;-65
2020/12/17 00:21:03;;;;;;;;;;;19.00;20.90;;;;;;5067200;28;20087;-65
2020/12/17 00:23:30;;;;;;;9.45;1.63;;;19.00;21.10;;;;;;5034630;28;19967;-66
2020/12/17 00:25:56;;;;;;;;;;;18.80;20.80;;;;;;5051098;28;20063;-65
2020/12/17 00:28:23;;;;;;;8.60;2.95;;;18.70;22.30;;;;;;5045047;28;19984;-66
2020/12/17 00:30:49;;;;;;;14.38;3.97;;;18.50;21.70;;;;;;5049598;28;20543;-64
2020/12/17 00:33:15;;;;;;;;;;;18.50;22.00;;;;;;5051603;28;20409;-65
2020/12/17 00:35:43;;;;;;;18.02;4.30;;;18.40;22.10;;;;;;5068866;28;20395;-64
2020/12/17 00:38:09;;;;;;;20.10;4.82;;;18.30;23.30;;;;;;5066896;28;20448;-63
2020/12/17 00:40:35;;;;;;;;;;;18.10;24.70;;;;;;5054448;28;20110;-64
2020/12/17 00:43:02;;;;;;;21.42;4.38;;;18.00;25.60;;;;;;5068120;28;19967;-64
2020/12/17 00:45:28;;;;;;;;;;;17.80;25.40;;;;;;5062166;28;20501;-65
2020/12/17 00:47:55;;;;;;;17.20;3.40;;;17.70;25.80;;;;;;5066861;28;20439;-63
2020/12/17 00:50:21;;;;;;;;;;;17.70;25.40;;;;;;5070716;28;20071;-65
2020/12/17 00:52:47;;;;;;;17.30;4.43;;;17.50;25.30;;;;;;5084962;28;19956;-65
2020/12/17 00:55:14;;;;;;;19.75;4.07;;;17.30;25.80;;;;;;5070999;28;20122;-64
2020/12/17 00:57:40;;;;;;;;;;;17.20;25.60;;;;;;5065455;28;20075;-63
2020/12/17 01:00:09;;;;;;;33.22;4.15;;;17.10;25.50;;;;;;5082945;28;19956;-64
2020/12/17 01:02:36;;;;;;;28.23;4.53;;;17.00;25.50;;;;;;5065967;28;20076;-63
2020/12/17 01:05:04;;;;;;;24.75;4.25;;;16.90;26.00;;;;;;5076089;28;20435;-64
2020/12/17 01:07:30;;;;;;;26.95;4.70;;;16.80;26.10;;;;;;5048030;28;20107;-64
2020/12/17 01:09:57;;;;;;;32.72;4.75;;;16.70;26.60;;;;;;5054572;28;20067;-64
2020/12/17 01:12:24;;;;;;;26.75;4.53;;;16.60;27.20;;;;;;5060281;28;20137;-64
2020/12/17 01:14:50;;;;;;;;;;;16.50;27.90;;;;;;5065771;28;20122;-65
2020/12/17 01:17:16;;;;;;;27.35;4.82;;;16.50;28.50;;;;;;5066490;28;19956;-65
2020/12/17 01:19:43;;;;;;;20.20;4.68;;;16.40;29.00;;;;;;5059341;28;20076;-63
2020/12/17 01:22:10;;;;;;;26.75;4.45;;;16.30;29.30;;;;;;5073776;28;20076;-63
2020/12/17 01:24:36;;;;;;;;;;;16.20;29.90;;;;;;5061590;28;20067;-64
2020/12/17 01:27:02;;;;;;;25.38;4.63;;;16.00;29.00;;;;;;5085500;28;19983;-64
2020/12/17 01:29:29;;;;;;;17.33;4.72;;;15.90;29.10;;;;;;5046853;28;20671;-64
2020/12/17 01:31:59;;;;;;;;;;;15.90;29.50;;;;;;5046565;28;20464;-64
2020/12/17 01:34:26;;;;;;;29.13;5.13;;;15.80;29.90;;;;;;5046504;28;19960;-64
2020/12/17 01:36:56;;;;;;;31.67;5.05;;;15.70;30.00;;;;;;5044254;28;20076;-64
2020/12/17 01:39:23;;;;;;;29.25;6.00;;;15.60;30.00;;;;;;5045792;28;20164;-65
2020/12/17 01:41:50;;;;;;;35.13;6.53;;;15.40;30.00;;;;;;5046827;28;20072;-63
2020/12/17 01:44:16;;;;;;;36.83;5.90;;;15.40;30.00;;;;;;5043388;28;20073;-66
2020/12/17 01:46:42;;;;;;;;;;;15.30;30.40;;;;;;5044440;28;20092;-65
2020/12/17 01:49:11;;;;;;;36.00;6.35;;;15.30;30.70;;;;;;5047910;28;19964;-65
2020/12/17 01:51:37;;;;;;;49.67;6.88;;;15.20;30.80;;;;;;5045822;28;20095;-66
2020/12/17 01:54:03;;;;;;;;;;;15.20;31.40;;;;;;5031708;28;20529;-65
2020/12/17 01:56:33;;;;;;;43.45;8.35;;;15.10;32.00;;;;;;5048468;28;20007;-65
2020/12/17 01:59:16;;;;;;;32.80;6.75;;;15.00;32.40;;;;;;5050429;28;20091;-64
2020/12/17 02:01:50;;;;;;;44.65;8.27;;;15.00;33.20;;;;;;5047215;28;20072;-64
2020/12/17 02:04:18;;;;;;;43.72;10.27;;;14.90;33.60;;;;;;5050252;28;20586;-64
2020/12/17 02:06:47;;;;;;;38.67;9.25;;;14.90;33.00;;;;;;5049849;28;20092;-65
2020/12/17 02:09:15;;;;;;;44.58;10.55;;;14.80;32.40;;;;;;5049451;28;20428;-65
2020/12/17 02:11:55;;;;;;;32.35;10.68;;;14.80;32.20;;;;;;5049091;28;20076;-65
2020/12/17 02:14:22;;;;;;;40.80;10.90;;;14.70;31.80;;;;;;5049163;28;20155;-66
2020/12/17 02:16:49;;;;;;;36.00;9.98;;;14.60;31.90;;;;;;5049511;28;20130;-66
2020/12/17 02:19:16;;;;;;;49.70;11.48;;;14.50;32.00;;;;;;5049150;28;20068;-64
2020/12/17 02:21:42;;;;;;;41.75;11.63;;;14.50;32.30;;;;;;5048666;28;20098;-65
2020/12/17 02:24:09;;;;;;;41.13;12.35;;;14.40;33.50;;;;;;5048813;28;20068;-65
2020/12/17 02:26:36;;;;;;;44.63;12.73;;;14.30;33.40;;;;;;5050004;28;20084;-65
2020/12/17 02:29:03;;;;;;;46.88;12.20;;;14.30;32.70;;;;;;5067801;28;20123;-65
2020/12/17 02:31:30;;;;;;;36.92;12.05;;;14.30;33.60;;;;;;5069053;28;20568;-66
2020/12/17 02:33:56;;;;;;;38.15;11.65;;;14.30;33.50;;;;;;5069830;28;20474;-66
2020/12/17 02:36:23;;;;;;;39.90;12.13;;;14.20;32.50;;;;;;5078470;28;20129;-65
2020/12/17 02:38:49;;;;;;;40.80;12.55;;;14.20;32.50;;;;;;5069568;28;20075;-65
2020/12/17 02:41:16;;;;;;;37.10;12.32;;;14.00;32.90;;;;;;5065304;28;20084;-66
2020/12/17 02:43:42;;;;;;;46.22;11.95;;;14.00;32.90;;;;;;5068546;28;20068;-66
2020/12/17 02:46:08;;;;;;;;;;;14.00;33.20;;;;;;5074064;28;20072;-66
2020/12/17 02:48:35;;;;;;;38.67;12.20;;;14.00;33.70;;;;;;5057696;28;19988;-66
2020/12/17 02:51:02;;;;;;;39.47;12.68;;;13.90;33.50;;;;;;5068810;28;20540;-65
2020/12/17 02:53:28;;;;;;;51.70;13.40;;;13.80;33.80;;;;;;5069573;28;20111;-66
2020/12/17 02:55:55;;;;;;;47.10;13.65;;;13.80;33.60;;;;;;5071021;28;20083;-66
2020/12/17 02:58:21;;;;;;;54.42;13.52;;;13.80;34.40;;;;;;5049036;28;20163;-65
2020/12/17 03:00:47;;;;;;;;;;;13.70;34.80;;;;;;5058606;28;20067;-65
2020/12/17 03:03:14;;;;;;;60.05;13.43;;;13.70;34.90;;;;;;5054078;28;20365;-64
2020/12/17 03:05:40;;;;;;;;;;;13.70;35.20;;;;;;5072461;28;20536;-66
2020/12/17 03:08:07;;;;;;;41.10;12.88;;;13.60;34.50;;;;;;5075619;28;19976;-66
2020/12/17 03:10:33;;;;;;;48.60;15.57;;;13.50;34.20;;;;;;5072143;28;20115;-66
2020/12/17 03:13:00;;;;;;;49.72;14.07;;;13.50;34.60;;;;;;5063576;28;20088;-65
2020/12/17 03:15:27;;;;;;;;;;;13.50;35.00;;;;;;5075981;28;21517;-66
2020/12/17 03:17:53;;;;;;;58.60;14.63;;;13.50;35.00;;;;;;5069377;28;20398;-65
2020/12/17 03:20:19;;;;;;;;;;;13.50;35.40;;;;;;5066951;28;20107;-66
2020/12/17 03:22:46;;;;;;;53.88;15.68;;;13.40;35.20;;;;;;5068326;28;20953;-66
2020/12/17 03:25:12;;;;;;;60.25;16.52;;;13.30;35.40;;;;;;5066758;28;20546;-66
2020/12/17 03:27:39;;;;;;;78.40;20.65;;;13.30;36.20;;;;;;5049381;28;20120;-66
2020/12/17 03:30:07;;;;;;;72.78;19.00;;;13.30;37.30;;;;;;5032691;28;20089;-67
2020/12/17 03:32:34;;;;;;;75.93;19.27;;;13.20;37.20;;;;;;5055271;28;20073;-65
2020/12/17 03:35:01;;;;;;;70.35;17.77;;;13.20;36.90;;;;;;5052854;28;20087;-65
2020/12/17 03:37:28;;;;;;;82.05;19.08;;;13.20;37.40;;;;;;5061558;28;20076;-65
2020/12/17 03:39:54;;;;;;;72.35;19.98;;;13.10;36.50;;;;;;5053869;28;20114;-65
2020/12/17 03:42:21;;;;;;;79.03;20.27;;;13.10;36.00;;;;;;5045477;28;20073;-65
2020/12/17 03:44:47;;;;;;;;;;;13.10;36.40;;;;;;5056874;28;20076;-65
2020/12/17 03:47:13;;;;;;;80.63;20.08;;;13.00;36.10;;;;;;5053982;28;19976;-65
2020/12/17 03:49:39;;;;;;;;;;;13.00;36.20;;;;;;5055001;28;20080;-65
2020/12/17 03:52:06;;;;;;;86.53;19.88;;;13.00;37.20;;;;;;5054461;28;19955;-66
2020/12/17 03:54:33;;;;;;;76.82;19.25;;;13.00;37.60;;;;;;5058046;28;20080;-66
2020/12/17 03:56:59;;;;;;;;;;;12.90;38.00;;;;;;5055061;28;20475;-65
2020/12/17 03:59:25;;;;;;;83.65;19.15;;;12.90;38.00;;;;;;5053246;28;19957;-66
2020/12/17 04:01:52;;;;;;;92.30;21.73;;;12.90;38.20;;;;;;5077109;28;20105;-64
2020/12/17 04:04:18;;;;;;;76.18;18.77;;;12.90;38.30;;;;;;5037149;28;20122;-65
2020/12/17 04:06:45;;;;;;;93.10;20.60;;;12.80;38.20;;;;;;5055874;28;20093;-65
2020/12/17 04:09:13;;;;;;;76.68;24.73;;;12.70;37.70;;;;;;5056717;28;20138;-66
2020/12/17 04:11:41;;;;;;;97.55;26.00;;;12.70;37.60;;;;;;5058380;28;20140;-64
2020/12/17 04:14:07;;;;;;;92.30;25.83;;;12.60;38.00;;;;;;5054554;28;20064;-64
2020/12/17 04:16:34;;;;;;;95.07;23.30;;;12.60;38.20;;;;;;5033977;28;20082;-65
2020/12/17 04:19:01;;;;;;;110.50;25.58;;;12.60;38.80;;;;;;5054081;28;20077;-65
2020/12/17 04:21:27;;;;;;;;;;;12.60;39.00;;;;;;5053148;28;20077;-65
2020/12/17 04:23:53;;;;;;;110.13;26.63;;;12.60;38.90;;;;;;5037091;28;19955;-66
2020/12/17 04:26:20;;;;;;;111.20;28.02;;;12.60;39.20;;;;;;5055814;28;20068;-65
2020/12/17 04:28:46;;;;;;;106.00;27.23;;;12.60;39.20;;;;;;5047050;28;20135;-65
2020/12/17 04:31:12;;;;;;;;;;;12.50;39.80;;;;;;5049610;28;20088;-66
2020/12/17 04:33:39;;;;;;;126.55;32.38;;;12.40;40.10;;;;;;5047751;28;19964;-65
2020/12/17 04:36:05;;;;;;;105.40;30.75;;;12.40;39.90;;;;;;5047634;28;20099;-65
2020/12/17 04:38:32;;;;;;;99.15;29.02;;;12.40;40.20;;;;;;5045238;28;20078;-66
2020/12/17 04:41:02;;;;;;;;;;;12.40;40.60;;;;;;5031143;28;20077;-64
2020/12/17 04:43:29;;;;;;;113.40;28.77;;;12.40;40.70;;;;;;5047219;28;20030;-65
2020/12/17 04:45:55;;;;;;;;;;;12.30;40.70;;;;;;5046374;28;20081;-66
2020/12/17 04:48:26;;;;;;;120.00;31.10;;;12.30;40.60;;;;;;5029066;28;19976;-66
2020/12/17 04:50:52;;;;;;;130.95;29.70;;;12.20;40.60;;;;;;5046536;28;20073;-65
2020/12/17 04:53:19;;;;;;;102.80;29.42;;;12.20;40.60;;;;;;5046581;28;20176;-66
2020/12/17 04:55:48;;;;;;;124.18;29.90;;;12.20;40.80;;;;;;5045862;28;20074;-65
2020/12/17 04:58:22;;;;;;;110.00;28.67;;;12.20;41.00;;;;;;5044844;28;24018;-65
2020/12/17 05:00:54;;;;;;;121.53;29.40;;;12.20;40.90;;;;;;5030187;28;20076;-65
2020/12/17 05:03:23;;;;;;;103.22;30.33;;;12.20;41.20;;;;;;5030154;28;20068;-66
2020/12/17 05:05:53;;;;;;;104.47;29.98;;;12.10;41.20;;;;;;5048287;28;20428;-65
2020/12/17 05:08:22;;;;;;;117.15;29.65;;;12.10;41.50;;;;;;5030757;28;20564;-66
2020/12/17 05:10:49;;;;;;;105.30;31.83;;;12.10;41.70;;;;;;5044734;28;20154;-67
2020/12/17 05:13:17;;;;;;;121.80;33.85;;;12.10;42.00;;;;;;5043909;28;20073;-65
2020/12/17 05:15:44;;;;;;;128.85;33.63;;;12.10;42.50;;;;;;5046387;28;20073;-66
2020/12/17 05:18:11;;;;;;;125.65;35.65;;;12.10;42.30;;;;;;5044837;28;20088;-66
2020/12/17 05:20:44;;;;;;;132.63;35.50;;;12.00;42.30;;;;;;5046177;28;20079;-65
2020/12/17 05:23:11;;;;;;;134.65;37.75;;;12.00;42.10;;;;;;5030912;28;20073;-65
2020/12/17 05:25:39;;;;;;;135.32;34.40;;;12.00;42.20;;;;;;5062827;28;20072;-66
2020/12/17 05:28:05;;;;;;;130.30;36.33;;;12.00;42.40;;;;;;5055426;28;20131;-65
2020/12/17 05:30:35;;;;;;;159.32;38.97;;;12.00;42.30;;;;;;5058558;28;20072;-65
2020/12/17 05:33:03;;;;;;;140.50;37.88;;;11.90;42.20;;;;;;5054973;28;20065;-67
2020/12/17 05:35:35;;;;;;;152.85;37.78;;;11.90;42.10;;;;;;5071382;28;20098;-66
2020/12/17 05:38:07;;;;;;;138.32;39.17;;;11.90;42.10;;;;;;5051576;28;20085;-66
2020/12/17 05:40:43;;;;;;;163.60;42.00;;;12.00;43.10;;;;;;5068902;28;20072;-65
2020/12/17 05:43:22;;;;;;;137.43;39.78;;;11.90;43.60;;;;;;5054036;28;20072;-65
2020/12/17 05:45:48;;;;;;;139.60;40.83;;;11.90;43.20;;;;;;5058427;28;20139;-64
2020/12/17 05:48:20;;;;;;;172.40;42.70;;;11.90;42.90;;;;;;5083826;28;20235;-66
2020/12/17 05:50:52;;;;;;;163.20;42.13;;;11.90;43.10;;;;;;5069612;28;20464;-65
2020/12/17 05:53:20;;;;;;;155.68;39.58;;;11.90;43.50;;;;;;5071251;28;20081;-64
2020/12/17 05:55:51;;;;;;;156.00;42.47;;;11.90;42.90;;;;;;5054191;28;20123;-66
2020/12/17 05:58:17;;;;;;;173.35;43.72;;;11.80;43.80;;;;;;5049661;28;20074;-66
2020/12/17 06:00:44;;;;;;;152.65;41.40;;;11.70;43.50;;;;;;5056377;28;20073;-66
2020/12/17 06:03:11;;;;;;;;;;;11.80;43.60;;;;;;5054652;28;20081;-65
2020/12/17 06:05:44;;;;;;;143.73;44.67;;;11.70;43.10;;;;;;5067945;28;19957;-65
2020/12/17 06:08:17;;;;;;;159.00;44.97;;;11.60;43.10;;;;;;5070949;28;20467;-66
2020/12/17 06:10:48;;;;;;;182.07;48.72;;;11.60;43.10;;;;;;5058273;28;20166;-66
2020/12/17 06:13:16;;;;;;;174.50;47.83;;;11.50;43.50;;;;;;5051370;28;20065;-66
2020/12/17 06:15:48;;;;;;;163.18;49.53;;;11.50;43.70;;;;;;5050217;28;20077;-66
2020/12/17 06:18:18;;;;;;;181.43;50.22;;;11.60;43.80;;;;;;5076296;28;20076;-65
2020/12/17 06:20:48;;;;;;;173.38;49.90;;;11.60;44.10;;;;;;5054112;28;20081;-65
2020/12/17 06:23:15;;;;;;;162.48;47.85;;;11.50;44.10;;;;;;5072786;28;20152;-66
2020/12/17 06:25:41;;;;;;;;;;;11.50;44.30;;;;;;5069821;28;20077;-65
2020/12/17 06:28:35;;;;;;;170.15;47.50;;;11.50;44.20;;;;;;5050692;28;20058;-66
2020/12/17 06:31:04;;;;;;;163.73;52.13;;;11.40;44.10;;;;;;5052368;28;20077;-65
2020/12/17 06:33:35;;;;;;;163.77;52.60;;;11.30;44.20;;;;;;5053171;28;20087;-65
2020/12/17 06:36:06;;;;;;;143.35;49.28;;;11.20;44.40;;;;;;5067340;28;20108;-66
2020/12/17 06:38:34;;;;;;;161.73;48.35;;;11.20;44.50;;;;;;5054269;28;20112;-66
2020/12/17 06:41:18;;;;;;;150.57;47.97;;;11.20;44.60;;;;;;5051270;28;20085;-65
2020/12/17 06:43:45;;;;;;;184.85;50.58;;;11.20;44.70;;;;;;5067567;28;20440;-66
2020/12/17 06:46:32;;;;;;;177.05;49.20;;;11.20;44.70;;;;;;5052549;28;20526;-66
2020/12/17 06:48:59;;;;;;;190.38;47.47;;;11.30;44.50;;;;;;5052791;28;20638;-65
2020/12/17 06:51:40;;;;;;;173.88;47.70;;;11.30;45.20;;;;;;5052606;28;20065;-66
2020/12/17 06:54:16;;;;;;;164.20;47.63;;;11.30;44.70;;;;;;5052283;28;20084;-65
2020/12/17 06:57:03;;;;;;;164.70;45.85;;;11.30;45.10;;;;;;5069313;28;20160;-66
2020/12/17 06:59:30;;;;;;;157.52;45.08;;;11.30;44.90;;;;;;5051520;28;20130;-65
2020/12/17 07:01:56;;;;;;;;;;;11.30;45.10;;;;;;5051853;28;20524;-66
2020/12/17 07:04:41;;;;;;;155.90;45.80;;;11.20;45.70;;;;;;5069751;28;19957;-66
2020/12/17 07:07:16;;;;;;;165.18;45.65;;;11.20;46.30;;;;;;5071387;28;20561;-66
2020/12/17 07:09:45;;;;;;;183.18;48.13;;;11.20;46.00;;;;;;5068672;28;20073;-66
2020/12/17 07:12:12;;;;;;;165.70;44.65;;;11.20;46.20;;;;;;5065900;28;20542;-65
2020/12/17 07:14:39;;;;;;;167.25;44.50;;;11.20;46.40;;;;;;5054326;28;20084;-65
2020/12/17 07:17:08;;;;;;;142.88;46.15;;;11.10;46.20;;;;;;5052735;28;20168;-65
2020/12/17 07:19:47;;;;;;;163.73;48.20;;;11.10;46.80;;;;;;5052089;28;20081;-65
2020/12/17 07:22:15;;;;;;;136.57;45.80;;;11.00;46.70;;;;;;5071221;28;20065;-66
2020/12/17 07:24:46;;;;;;;139.10;43.90;;;11.00;46.50;;;;;;5070103;28;20088;-65
2020/12/17 07:27:14;;;;;;;152.90;45.25;;;11.00;46.80;;;;;;5052235;28;20145;-66
2020/12/17 07:29:43;;;;;;;149.60;47.40;;;11.00;46.80;;;;;;5052076;28;20108;-67
2020/12/17 07:32:33;;;;;;;168.93;48.42;;;11.00;47.40;;;;;;5071442;28;20609;-66
2020/12/17 07:35:08;;;;;;;123.30;43.83;;;11.00;47.10;;;;;;5066631;28;20164;-66
2020/12/17 07:37:55;;;;;;;181.68;47.67;;;11.00;47.70;;;;;;5079897;28;20126;-66
2020/12/17 07:40:35;;;;;;;141.02;46.75;;;10.80;46.80;;;;;;5070357;28;20569;-66
2020/12/17 07:43:06;;;;;;;150.10;46.75;;;10.80;46.90;;;;;;5067517;28;20082;-65
2020/12/17 07:45:53;;;;;;;168.82;47.92;;;10.80;47.20;;;;;;5068306;28;20076;-65
2020/12/17 07:48:35;;;;;;;138.30;45.22;;;10.80;47.50;;;;;;5070854;28;20101;-65
2020/12/17 07:51:13;;;;;;;141.93;43.80;;;10.80;47.80;;;;;;5052389;28;20104;-66
2020/12/17 07:53:51;;;;;;;143.23;44.83;;;10.70;48.00;;;;;;5066624;28;20478;-65
2020/12/17 07:56:18;;;;;;;144.07;44.72;;;10.70;47.70;;;;;;5050434;28;20105;-66
2020/12/17 07:58:45;;;;;;;159.02;44.50;;;10.70;47.50;;;;;;5070402;28;20084;-66
2020/12/17 08:01:13;;;;;;;156.35;46.28;;;10.70;47.20;;;;;;5067712;28;20086;-65
2020/12/17 08:03:53;;;;;;;154.20;44.63;;;10.70;48.20;;;;;;5066245;28;20069;-65
2020/12/17 08:06:23;;;;;;;150.48;46.75;;;10.60;48.10;;;;;;5071485;28;20162;-65
2020/12/17 08:08:58;;;;;;;135.13;43.80;;;10.60;48.00;;;;;;5049951;28;20188;-65
2020/12/17 08:11:26;;;;;;;176.20;47.78;;;10.60;47.60;;;;;;5070621;28;20440;-66
2020/12/17 08:14:03;;;;;;;160.25;45.13;;;10.60;48.20;;;;;;5069028;28;20448;-65
2020/12/17 08:16:30;;;;;;;143.40;44.60;;;10.60;47.90;;;;;;5050964;28;20069;-65
2020/12/17 08:18:58;;;;;;;144.52;45.83;;;10.60;48.40;;;;;;5064730;28;20081;-64
2020/12/17 08:21:26;;;;;;;156.35;44.80;;;10.60;48.60;;;;;;5064312;28;20062;-66
2020/12/17 08:23:53;;;;;;;151.13;46.47;;;10.50;48.30;;;;;;5048913;28;20081;-66
2020/12/17 08:26:28;;;;;;;136.60;44.00;;;10.50;48.20;;;;;;5065554;28;20081;-66
2020/12/17 08:28:55;;;;;;;140.50;46.80;;;10.40;48.80;;;;;;5056842;28;20492;-66
2020/12/17 08:31:28;;;;;;;131.73;44.28;;;10.40;49.00;;;;;;5050957;28;20093;-65
2020/12/17 08:33:59;;;;;;;121.13;41.15;;;10.30;49.00;;;;;;5049323;28;20083;-65
2020/12/17 08:36:32;;;;;;;122.65;37.92;;;10.20;47.20;;;;;;5051531;28;20069;-66
2020/12/17 08:39:01;;;;;;;110.65;37.58;;;10.20;47.30;;;;;;5053762;28;20149;-68
2020/12/17 08:41:41;;;;;;;108.68;37.80;;;10.20;46.90;;;;;;5056325;28;20085;-66
2020/12/17 08:44:09;;;;;;;123.70;37.97;;;10.20;47.00;;;;;;5059248;28;20059;-63
2020/12/17 08:46:46;;;;;;;100.72;36.08;;;10.10;47.70;;;;;;5055312;28;20081;-66
2020/12/17 08:49:14;;;;;;;105.75;34.80;;;10.00;47.20;;;;;;5050893;28;20561;-64
2020/12/17 08:51:46;;;;;;;106.75;32.63;;;10.00;46.70;;;;;;5053667;28;20080;-65
2020/12/17 08:54:25;;;;;;;89.63;30.67;;;10.00;46.20;;;;;;5036671;28;20168;-66
2020/12/17 08:57:09;;;;;;;93.50;32.25;;;10.00;46.40;;;;;;5052419;28;20156;-66
2020/12/17 08:59:37;;;;;;;101.22;33.45;;;9.90;46.60;;;;;;5033766;28;20160;-65
2020/12/17 09:02:04;;;;;;;99.85;33.85;;;9.90;46.50;;;;;;5054157;28;20093;-65
2020/12/17 09:04:31;;;;;;;110.63;33.83;;;9.90;46.40;;;;;;5059421;28;20081;-65
2020/12/17 09:07:00;;;;;;;100.00;33.25;;;9.80;47.00;;;;;;5053860;28;20089;-65
2020/12/17 09:09:29;;;;;;;108.70;36.72;;;9.90;47.30;;;;;;5060125;28;20065;-65
2020/12/17 09:11:59;;;;;;;93.55;33.00;;;9.80;47.90;;;;;;5041078;28;20075;-65
2020/12/17 09:14:34;;;;;;;97.97;33.45;;;9.80;47.30;;;;;;5058790;28;20101;-65
2020/12/17 09:17:13;;;;;;;104.70;35.38;;;9.80;47.10;;;;;;5052788;28;20432;-65
2020/12/17 09:19:41;;;;;;;118.63;36.15;;;9.80;47.10;;;;;;5029152;28;20083;-65
2020/12/17 09:22:07;;;;;;;118.25;38.25;;;9.80;47.30;;;;;;5053951;28;20070;-65
2020/12/17 09:24:34;;;;;;;;;;;9.80;47.40;;;;;;5052851;28;20078;-65
2020/12/17 09:27:36;;;;;;;128.55;41.58;;;9.80;47.60;;;;;;5036729;28;19986;-64
2020/12/17 09:30:07;;;;;;;128.77;41.53;;;9.70;49.00;;;;;;5067745;28;20108;-64
2020/12/17 09:32:36;;;;;;;120.93;42.05;;;9.70;47.90;;;;;;5068281;28;20468;-65
2020/12/17 09:35:11;;;;;;;146.48;45.42;;;9.70;48.10;;;;;;5067955;28;20081;-65
2020/12/17 09:37:54;;;;;;;160.73;53.00;;;9.70;48.10;;;;;;5051117;28;20096;-65
2020/12/17 09:40:23;;;;;;;180.05;54.15;;;9.70;47.90;;;;;;5065740;28;21554;-66
2020/12/17 09:43:01;;;;;;;187.93;55.58;;;9.70;47.70;;;;;;5049925;28;20104;-65
2020/12/17 09:45:27;;;;;;;194.82;56.47;;;9.60;48.00;;;;;;5052781;28;20104;-65
2020/12/17 09:47:57;;;;;;;201.80;57.13;;;9.70;48.80;;;;;;5068178;28;20094;-66
2020/12/17 09:50:26;;;;;;;203.50;56.92;;;9.70;48.40;;;;;;5069267;28;20080;-65
2020/12/17 09:52:55;;;;;;;212.30;58.65;;;9.70;47.80;;;;;;5068095;28;20079;-65
2020/12/17 09:55:21;;;;;;;201.57;58.08;;;9.70;47.70;;;;;;5067776;28;20077;-65
2020/12/17 09:57:48;;;;;;;214.85;61.08;;;9.70;47.80;;;;;;5069174;28;20421;-65
2020/12/17 10:00:15;;;;;;;213.05;57.67;;;9.80;47.30;;;;;;5065380;28;20077;-65
2020/12/17 10:02:43;;;;;;;208.15;55.95;;;9.70;47.50;;;;;;5065709;28;20087;-65
2020/12/17 10:05:13;;;;;;;216.43;57.17;;;9.70;47.20;;;;;;5064513;28;20191;-65
2020/12/17 10:07:46;;;;;;;218.32;58.03;;;9.80;47.70;;;;;;5064543;28;20101;-63
2020/12/17 10:10:12;;;;;;;227.18;57.25;;;9.80;47.30;;;;;;5066140;28;20119;-65
2020/12/17 10:12:39;;;;;;;;;;;9.70;47.40;;;;;;5066435;28;20073;-67
2020/12/17 10:15:06;;;;;;;220.53;55.77;;;9.60;47.80;;;;;;5068197;28;19961;-66
2020/12/17 10:17:32;;;;;;;;;;;9.60;47.70;;;;;;5071685;28;20090;-65
2020/12/17 10:19:58;;;;;;;206.85;55.97;;;9.60;47.30;;;;;;5069540;28;20001;-65
2020/12/17 10:22:26;;;;;;;244.25;57.78;;;9.60;47.50;;;;;;5068939;28;20085;-65
2020/12/17 10:24:52;;;;;;;212.07;56.13;;;9.60;47.70;;;;;;5071160;28;20195;-65
2020/12/17 10:27:18;;;;;;;213.55;57.95;;;9.60;47.80;;;;;;5067680;28;20115;-65
2020/12/17 10:29:45;;;;;;;207.57;55.30;;;9.60;47.40;;;;;;5051283;28;20069;-65
2020/12/17 10:32:13;;;;;;;215.35;56.17;;;9.50;47.30;;;;;;5052092;28;20122;-65
2020/12/17 10:34:40;;;;;;;223.13;55.40;;;9.60;47.30;;;;;;5069027;28;20081;-65
2020/12/17 10:37:07;;;;;;;207.57;53.42;;;9.60;47.00;;;;;;5070762;28;20096;-64
2020/12/17 10:39:33;;;;;;;196.73;52.28;;;9.70;46.80;;;;;;5070282;28;20160;-66
2020/12/17 10:42:04;;;;;;;186.85;53.38;;;9.60;46.60;;;;;;5068867;28;20080;-65
2020/12/17 10:44:31;;;;;;;197.40;50.88;;;9.60;46.60;;;;;;5075909;28;20545;-65
2020/12/17 10:47:02;;;;;;;172.68;50.97;;;9.60;46.90;;;;;;5067102;28;20090;-65
2020/12/17 10:49:28;;;;;;;202.80;49.55;;;9.60;46.60;;;;;;5062737;28;20077;-65
2020/12/17 10:51:54;;;;;;;;;;;9.60;46.30;;;;;;5066095;28;20116;-64
2020/12/17 10:54:21;;;;;;;188.80;46.15;;;9.60;46.00;;;;;;5072503;28;19971;-65
2020/12/17 10:56:48;;;;;;;167.65;47.50;;;9.50;45.80;;;;;;5064263;28;20082;-65
2020/12/17 10:59:14;;;;;;;;;;;9.50;46.40;;;;;;5071762;28;20075;-66
2020/12/17 11:01:41;;;;;;;166.60;47.22;;;9.50;46.20;;;;;;5069308;28;20022;-65
2020/12/17 11:04:07;;;;;;;203.77;51.10;;;9.50;46.40;;;;;;5069572;28;20172;-65
2020/12/17 11:06:34;;;;;;;173.15;47.83;;;9.50;46.40;;;;;;5071275;28;21316;-65
2020/12/17 11:09:00;;;;;;;170.85;47.88;;;9.50;46.40;;;;;;5050873;28;20084;-65
2020/12/17 11:11:26;;;;;;;;;;;9.50;46.60;;;;;;5051123;28;20071;-66
2020/12/17 11:13:53;;;;;;;163.80;47.50;;;9.50;46.90;;;;;;5069899;28;20019;-65
2020/12/17 11:16:20;;;;;;;167.85;45.85;;;9.40;46.60;;;;;;5068633;28;20436;-65
2020/12/17 11:18:47;;;;;;;159.63;48.15;;;9.50;46.40;;;;;;5051342;28;20074;-65
2020/12/17 11:21:22;;;;;;;173.30;47.28;;;9.40;46.60;;;;;;5070131;28;20100;-65
2020/12/17 11:23:48;;;;;;;163.93;48.33;;;9.40;47.30;;;;;;5055133;28;20101;-66
2020/12/17 11:26:15;;;;;;;185.85;47.47;;;9.40;47.80;;;;;;5069607;28;20460;-65
2020/12/17 11:28:41;;;;;;;;;;;9.40;47.40;;;;;;5053771;28;20114;-65
2020/12/17 11:31:08;;;;;;;158.20;44.63;;;9.40;47.40;;;;;;5032001;28;19961;-65
2020/12/17 11:33:35;;;;;;;148.25;42.88;;;9.40;46.90;;;;;;5049375;28;20590;-66
2020/12/17 11:36:04;;;;;;;155.77;43.63;;;9.30;45.90;;;;;;5049372;28;20081;-65
2020/12/17 11:38:30;;;;;;;158.35;43.35;;;9.30;45.70;;;;;;5030319;28;20081;-65
2020/12/17 11:40:56;;;;;;;;;;;9.30;45.60;;;;;;5051478;28;20073;-65
2020/12/17 11:43:23;;;;;;;132.38;38.63;;;9.30;45.60;;;;;;5061174;28;19957;-65
2020/12/17 11:45:50;;;;;;;132.35;39.92;;;9.30;46.10;;;;;;5033450;28;20156;-65
2020/12/17 11:48:16;;;;;;;;;;;9.30;46.20;;;;;;5049824;28;20240;-65
2020/12/17 11:50:42;;;;;;;134.25;38.83;;;9.30;47.00;;;;;;5046348;28;19965;-65
2020/12/17 11:53:09;;;;;;;143.70;43.42;;;9.30;46.40;;;;;;5049230;28;20151;-66
2020/12/17 11:55:35;;;;;;;;;;;9.20;46.10;;;;;;5050904;28;20089;-65
2020/12/17 11:58:01;;;;;;;126.93;38.53;;;9.20;46.30;;;;;;5048988;28;19968;-65
2020/12/17 12:00:28;;;;;;;133.65;37.50;;;9.20;46.40;;;;;;5048945;28;20099;-65
2020/12/17 12:02:54;;;;;;;;;;;9.30;46.90;;;;;;5048928;28;20073;-65
2020/12/17 12:05:20;;;;;;;129.32;37.72;;;9.30;46.90;;;;;;5048687;28;20073;-64
2020/12/17 12:07:46;;;;;;;;;;;9.20;47.70;;;;;;5031707;28;20097;-66
2020/12/17 12:10:13;;;;;;;140.80;37.13;;;9.20;47.70;;;;;;5048590;28;19979;-66
2020/12/17 12:12:39;;;;;;;;;;;9.20;47.80;;;;;;5047770;28;20116;-65
2020/12/17 12:15:05;;;;;;;118.63;36.13;;;9.30;48.20;;;;;;5031402;28;19965;-65
2020/12/17 12:17:32;;;;;;;;;;;9.30;48.10;;;;;;5047794;28;20078;-65
2020/12/17 12:19:58;;;;;;;124.45;36.83;;;9.20;48.40;;;;;;5046528;28;19973;-64
2020/12/17 12:22:25;;;;;;;128.70;38.17;;;9.20;48.40;;;;;;5045966;28;20552;-65
2020/12/17 12:24:51;;;;;;;;;;;9.20;48.70;;;;;;5048552;28;20073;-65
2020/12/17 12:27:17;;;;;;;131.63;36.28;;;9.20;48.50;;;;;;5050447;28;20022;-65
2020/12/17 12:29:44;;;;;;;116.00;36.33;;;9.20;48.40;;;;;;5052974;28;20513;-65
2020/12/17 12:32:10;;;;;;;122.45;36.33;;;9.10;48.40;;;;;;5068875;28;20120;-66
2020/12/17 12:34:36;;;;;;;;;;;9.10;48.30;;;;;;5068729;28;20626;-66
2020/12/17 12:37:03;;;;;;;125.57;39.17;;;9.10;48.50;;;;;;5066736;28;19960;-66
2020/12/17 12:39:30;;;;;;;;;;;9.00;49.20;;;;;;5065612;28;20515;-66
2020/12/17 12:41:56;;;;;;;136.48;39.33;;;9.00;49.50;;;;;;5068068;28;20003;-66
2020/12/17 12:44:23;;;;;;;136.13;38.83;;;9.00;49.80;;;;;;5067954;28;20076;-65
2020/12/17 12:46:49;;;;;;;;;;;9.00;49.50;;;;;;5069824;28;20519;-66
2020/12/17 12:49:17;;;;;;;130.55;40.60;;;9.00;49.50;;;;;;5052745;28;20418;-66